createdAt,value
2023-07-24T00:01:08.617Z,98171.22
2023-07-24T00:06:10.338Z,98159.25
2023-07-24T00:11:12.024Z,98163.50
2023-07-24T00:16:13.698Z,98157.91
2023-07-24T00:21:15.448Z,98160.47
2023-07-24T00:26:17.315Z,98160.44
2023-07-24T00:31:18.968Z,98157.00
2023-07-24T00:36:20.725Z,98161.75
2023-07-24T00:41:22.385Z,98164.09
2023-07-24T00:46:24.571Z,98163.63
2023-07-24T00:51:29.150Z,98161.19
2023-07-24T00:56:33.071Z,98159.78
2023-07-24T01:01:35.072Z,98159.97
2023-07-24T01:06:36.689Z,98156.47
2023-07-24T01:11:43.803Z,98144.13
2023-07-24T01:16:48.149Z,98141.91
2023-07-24T01:22:36.216Z,98143.41
2023-07-24T01:27:45.308Z,98137.31
2023-07-24T01:32:47.153Z,98124.81
2023-07-24T01:37:49.908Z,98123.66
2023-07-24T01:42:51.967Z,98116.03
2023-07-24T01:47:53.669Z,98115.22
2023-07-24T01:52:55.368Z,98109.72
2023-07-24T01:57:57.304Z,98107.50
2023-07-24T02:02:59.284Z,98099.38
2023-07-24T02:08:00.949Z,98092.88
2023-07-24T02:13:02.730Z,98099.91
2023-07-24T02:18:04.351Z,98109.53
2023-07-24T02:23:06.002Z,98105.16
2023-07-24T02:28:07.665Z,98107.25
2023-07-24T02:33:09.302Z,98104.31
2023-07-24T02:38:11.127Z,98103.19
2023-07-24T02:43:12.775Z,98101.91
2023-07-24T02:48:14.473Z,98096.44
2023-07-24T02:53:16.655Z,98089.03
2023-07-24T02:58:18.327Z,98073.94
2023-07-24T03:03:20.127Z,98082.66
2023-07-24T03:08:21.767Z,98079.28
2023-07-24T03:13:23.469Z,98080.63
2023-07-24T03:18:25.820Z,98069.22
2023-07-24T03:23:27.653Z,98070.31
2023-07-24T03:28:29.288Z,98066.13
2023-07-24T03:33:30.867Z,98065.94
2023-07-24T03:38:35.825Z,98076.28
2023-07-24T03:43:37.970Z,98074.00
2023-07-24T03:48:39.709Z,98074.59
2023-07-24T03:53:41.851Z,98069.69
2023-07-24T03:58:43.572Z,98071.56
2023-07-24T04:03:45.255Z,98081.75
2023-07-24T04:08:46.993Z,98073.19
2023-07-24T04:13:48.610Z,98085.56
2023-07-24T04:18:50.360Z,98088.91
2023-07-24T04:23:52.107Z,98077.78
2023-07-24T04:28:53.813Z,98074.25
2023-07-24T04:33:55.423Z,98062.53
2023-07-24T04:38:57.332Z,98058.25
2023-07-24T04:43:59.122Z,98062.75
2023-07-24T04:49:00.927Z,98055.75
2023-07-24T04:54:02.562Z,98051.56
2023-07-24T04:59:04.273Z,98047.16
2023-07-24T05:04:05.955Z,98047.44
2023-07-24T05:09:07.740Z,98052.88
2023-07-24T05:14:09.450Z,98049.34
2023-07-24T05:19:11.131Z,98050.34
2023-07-24T05:24:12.798Z,98058.09
2023-07-24T05:29:15.606Z,98043.22
2023-07-24T05:34:17.291Z,98058.22
2023-07-24T05:39:19.029Z,98049.25
2023-07-24T05:44:20.647Z,98048.47
2023-07-24T05:49:22.848Z,98040.72
2023-07-24T05:54:24.509Z,98043.59
2023-07-24T05:59:26.141Z,98040.56
2023-07-24T06:04:27.932Z,98015.16
2023-07-24T06:09:29.840Z,98013.78
2023-07-24T06:14:31.537Z,98016.06
2023-07-24T06:19:33.277Z,98019.69
2023-07-24T06:24:35.053Z,98023.19
2023-07-24T06:29:38.089Z,98011.94
2023-07-24T06:34:41.602Z,98024.28
2023-07-24T06:39:43.332Z,98021.72
2023-07-24T06:44:44.979Z,98023.84
2023-07-24T06:49:46.636Z,98027.59
2023-07-24T06:54:48.392Z,98017.28
2023-07-24T06:59:50.064Z,98009.47
2023-07-24T07:04:51.753Z,97992.38
2023-07-24T07:09:53.481Z,97995.38
2023-07-24T07:14:55.287Z,97972.16
2023-07-24T07:19:58.639Z,97969.22
2023-07-24T07:25:00.414Z,97960.09
2023-07-24T07:30:02.131Z,97964.66
2023-07-24T07:35:04.600Z,97950.69
2023-07-24T07:40:07.515Z,97945.41
2023-07-24T07:45:09.663Z,97934.06
2023-07-24T07:50:11.433Z,97926.13
2023-07-24T07:55:14.919Z,97905.28
2023-07-24T08:00:16.942Z,97929.06
2023-07-24T08:05:21.258Z,97931.28
2023-07-24T08:10:23.610Z,97913.38
2023-07-24T08:15:25.373Z,97921.66
2023-07-24T08:20:27.119Z,97917.88
2023-07-24T08:25:28.929Z,97914.97
2023-07-24T08:30:30.588Z,97924.41
2023-07-24T08:35:32.277Z,97913.50
2023-07-24T08:40:34.086Z,97907.63
2023-07-24T08:45:36.097Z,97903.19
2023-07-24T08:50:38.745Z,97883.31
2023-07-24T08:55:40.911Z,97883.72
2023-07-24T09:00:43.229Z,97879.66
2023-07-24T09:05:44.964Z,97854.50
2023-07-24T09:10:51.519Z,97849.56
2023-07-24T09:15:53.567Z,97834.66
2023-07-24T09:20:55.934Z,97826.19
2023-07-24T09:25:57.809Z,97826.84
2023-07-24T09:31:02.138Z,97818.88
2023-07-24T09:36:06.047Z,97810.97
2023-07-24T09:41:08.176Z,97795.66
2023-07-24T09:46:11.813Z,97775.63
2023-07-24T09:51:16.787Z,97782.81
2023-07-24T09:56:19.293Z,97771.22
2023-07-24T10:01:21.307Z,97789.38
2023-07-24T10:06:23.722Z,97792.41
2023-07-24T10:11:26.254Z,97795.84
2023-07-24T10:16:28.132Z,97801.41
2023-07-24T10:21:30.342Z,97798.75
2023-07-24T10:26:32.422Z,97804.50
2023-07-24T10:31:34.480Z,97776.59
2023-07-24T10:36:37.609Z,97788.28
2023-07-24T10:41:41.098Z,97763.06
2023-07-24T10:46:45.912Z,97761.69
2023-07-24T10:51:47.590Z,97766.16
2023-07-24T10:56:52.054Z,97749.78
2023-07-24T11:01:54.173Z,97736.13
2023-07-24T11:06:58.720Z,97726.56
2023-07-24T11:12:00.593Z,97749.38
2023-07-24T11:17:02.332Z,97765.28
2023-07-24T11:22:04.965Z,97763.53
2023-07-24T11:27:13.505Z,97753.44
2023-07-24T11:32:21.831Z,97746.03
2023-07-24T11:37:23.661Z,97726.47
2023-07-24T11:42:28.810Z,97712.25
2023-07-24T11:47:33.510Z,97702.69
2023-07-24T11:52:45.657Z,97707.91
2023-07-24T11:58:01.094Z,97706.53
2023-07-24T12:03:05.948Z,97706.72
2023-07-24T12:08:08.556Z,97681.16
2023-07-24T12:13:10.897Z,97659.16
2023-07-24T12:18:12.564Z,97658.44
2023-07-24T12:23:14.425Z,97660.72
2023-07-24T12:28:16.276Z,97679.72
2023-07-24T12:33:18.270Z,97671.19
2023-07-24T12:38:20.392Z,97652.59
2023-07-24T12:43:22.095Z,97655.03
2023-07-24T12:48:23.840Z,97625.91
2023-07-24T12:53:31.698Z,97598.69
2023-07-24T12:58:35.374Z,97592.16
2023-07-24T13:03:37.098Z,97584.06
2023-07-24T13:08:38.873Z,97589.72
2023-07-24T13:13:40.551Z,97562.69
2023-07-24T13:18:42.199Z,97553.19
2023-07-24T13:23:44.037Z,97565.72
2023-07-24T13:28:45.666Z,97568.00
2023-07-24T13:33:48.211Z,97575.22
2023-07-24T13:38:51.900Z,97563.75
2023-07-24T13:43:53.786Z,97552.09
2023-07-24T13:48:55.674Z,97541.59
2023-07-24T13:53:57.365Z,97558.66
2023-07-24T13:58:59.951Z,97568.16
2023-07-24T14:04:02.448Z,97581.94
2023-07-24T14:09:04.575Z,97567.84
2023-07-24T14:14:06.283Z,97566.06
2023-07-24T14:19:08.366Z,97545.50
2023-07-24T14:24:11.024Z,97520.72
2023-07-24T14:29:13.998Z,97541.34
2023-07-24T14:34:16.289Z,97508.41
2023-07-24T14:39:18.738Z,97490.19
2023-07-24T14:44:21.411Z,97490.66
2023-07-24T14:49:24.261Z,97466.22
2023-07-24T14:54:27.034Z,97454.06
2023-07-24T14:59:30.099Z,97411.22
2023-07-24T15:04:32.494Z,97371.03
2023-07-24T15:09:35.226Z,97347.47
2023-07-24T15:14:38.235Z,97387.81
2023-07-24T15:19:41.305Z,97417.28
2023-07-24T15:24:44.730Z,97416.06
2023-07-24T15:29:49.470Z,97427.75
2023-07-24T15:34:52.467Z,97465.22
2023-07-24T15:39:55.958Z,97504.13
2023-07-24T15:44:57.889Z,97494.13
2023-07-24T15:50:02.360Z,97471.16
2023-07-24T15:55:04.322Z,97487.94
2023-07-24T16:00:08.697Z,97536.91
2023-07-24T16:05:21.522Z,97552.09
2023-07-24T16:10:24.189Z,97561.25
2023-07-24T16:20:30.698Z,97508.00
2023-07-24T16:25:32.666Z,97475.88
2023-07-24T16:30:35.654Z,97382.50
2023-07-24T16:35:37.698Z,97323.72
2023-07-24T16:40:39.929Z,97301.25
2023-07-24T16:45:42.839Z,97349.50
2023-07-24T16:51:05.723Z,97345.22
2023-07-24T16:56:08.666Z,97324.78
2023-07-24T17:01:11.799Z,97315.50
2023-07-24T17:06:15.013Z,97318.41
2023-07-24T17:11:18.466Z,97343.44
2023-07-24T17:16:21.491Z,97366.88
2023-07-24T17:21:24.753Z,97379.03
2023-07-24T17:26:32.928Z,97397.97
2023-07-24T17:31:35.962Z,97405.72
2023-07-24T17:36:39.110Z,97422.00
2023-07-24T17:41:42.224Z,97435.91
2023-07-24T17:46:47.360Z,97436.72
2023-07-24T17:51:52.084Z,97433.09
2023-07-24T17:56:56.592Z,97443.50
2023-07-24T18:02:01.628Z,97446.69
2023-07-24T18:07:07.048Z,97464.41
2023-07-24T18:12:10.907Z,97469.19
2023-07-24T18:17:16.092Z,97487.00
2023-07-24T18:22:21.070Z,97482.06
2023-07-24T18:27:24.386Z,97488.44
2023-07-24T18:32:27.643Z,97485.91
2023-07-24T18:37:31.013Z,97488.19
2023-07-24T18:42:34.353Z,97476.56
2023-07-24T18:47:38.254Z,97462.91
2023-07-24T18:52:42.127Z,97430.47
2023-07-24T18:57:45.422Z,97427.53
2023-07-24T19:02:49.504Z,97460.34
2023-07-24T19:07:54.100Z,97452.03
2023-07-24T19:12:57.403Z,97522.81
2023-07-24T19:18:03.422Z,97489.03
2023-07-24T19:23:06.789Z,97534.66
2023-07-24T19:28:11.148Z,97516.78
2023-07-24T19:33:16.335Z,97516.88
2023-07-24T19:38:19.684Z,97495.03
2023-07-24T19:43:27.527Z,97457.88
2023-07-24T19:48:30.788Z,97462.16
2023-07-24T19:53:34.153Z,97472.31
2023-07-24T19:58:37.449Z,97478.78
2023-07-24T20:03:43.410Z,97515.59
2023-07-24T20:08:46.740Z,97563.34
2023-07-24T20:13:52.574Z,97461.78
2023-07-24T20:18:55.432Z,97499.13
2023-07-24T20:24:12.369Z,97475.50
2023-07-24T20:29:16.862Z,97539.47
2023-07-24T20:34:20.083Z,97498.97
2023-07-24T20:39:23.284Z,97521.94
2023-07-24T20:44:26.584Z,97556.19
2023-07-24T20:49:29.747Z,97589.06
2023-07-24T20:54:32.967Z,97610.50
2023-07-24T20:59:36.053Z,97682.03
2023-07-24T21:04:37.925Z,97691.25
2023-07-24T21:09:39.767Z,97612.50
2023-07-24T21:14:41.387Z,97507.72
2023-07-24T21:19:43.723Z,97426.66
2023-07-24T21:24:46.227Z,97400.94
2023-07-24T21:29:50.581Z,97438.13
2023-07-24T21:34:52.368Z,97490.72
2023-07-24T21:39:53.998Z,97544.50
2023-07-24T21:44:55.656Z,97589.47
2023-07-24T21:49:57.253Z,97580.44
2023-07-24T21:54:58.950Z,97594.34
2023-07-24T22:00:00.536Z,97588.91
2023-07-24T22:05:02.208Z,97606.34
2023-07-24T22:10:04.172Z,97597.03
2023-07-24T22:15:06.488Z,97594.19
2023-07-24T22:20:08.663Z,97525.47
2023-07-24T22:25:10.371Z,97514.63
2023-07-24T22:30:12.480Z,97528.53
2023-07-24T22:35:15.003Z,97563.59
2023-07-24T22:40:16.762Z,97630.56
2023-07-24T22:45:18.384Z,97662.09
2023-07-24T22:50:20.059Z,97644.06
2023-07-24T22:55:21.716Z,97584.84
2023-07-24T23:00:23.536Z,97559.50
2023-07-24T23:05:25.289Z,97625.44
2023-07-24T23:10:26.943Z,97628.91
2023-07-24T23:15:28.618Z,97632.09
2023-07-24T23:20:30.229Z,97626.78
2023-07-24T23:25:31.819Z,97511.78
2023-07-24T23:30:41.193Z,97545.78
2023-07-24T23:35:42.827Z,97552.41
2023-07-24T23:40:44.454Z,97501.41
2023-07-24T23:45:46.015Z,97508.03
2023-07-24T23:50:47.769Z,97508.94
2023-07-24T23:55:49.330Z,97529.84
